Time;durP1;ratioP1;P1;durP2;ratioP2;P2;SDS_P1;SDS_P2;PMS_P1;PMS_P2;Temp;Humidity;BMP_temperature;BMP_pressure;BME280_temperature;BME280_humidity;BME280_pressure;Samples;Min_cycle;Max_cycle;Signal;HPM_P1;HPM_P2
2020/12/13 00:00:32;;;;;;;6.95;5.30;;;3.50;99.90;;;;;;4757605;30;20067;-79
2020/12/13 00:03:03;;;;;;;6.72;5.10;;;3.50;99.90;;;;;;4762365;30;20064;-79
2020/12/13 00:05:35;;;;;;;7.25;5.22;;;3.50;99.90;;;;;;4766862;30;20111;-79
2020/12/13 00:08:06;;;;;;;5.68;4.93;;;3.50;99.90;;;;;;4763968;30;20147;-79
2020/12/13 00:10:32;;;;;;;6.28;5.03;;;3.50;99.90;;;;;;4762151;30;20086;-79
2020/12/13 00:12:59;;;;;;;8.52;4.57;;;3.50;99.90;;;;;;4760459;30;20083;-79
2020/12/13 00:15:30;;;;;;;6.10;4.32;;;3.50;99.90;;;;;;4775367;30;20048;-79
2020/12/13 00:17:56;;;;;;;6.75;4.97;;;3.50;99.90;;;;;;4759126;30;20523;-79
2020/12/13 00:20:22;;;;;;;6.40;5.05;;;3.50;99.90;;;;;;4759694;30;20052;-79
2020/12/13 00:22:54;;;;;;;5.82;4.65;;;3.50;99.90;;;;;;4758440;30;20123;-79
2020/12/13 00:25:20;;;;;;;6.97;5.20;;;3.50;99.90;;;;;;4758630;30;20162;-79
2020/12/13 00:27:51;;;;;;;6.85;5.22;;;3.50;99.90;;;;;;4757701;30;20430;-79
2020/12/13 00:30:18;;;;;;;6.82;5.30;;;3.50;99.90;;;;;;4758907;30;20142;-79
2020/12/13 00:32:45;;;;;;;7.63;5.88;;;3.50;99.90;;;;;;4758509;30;20116;-79
2020/12/13 00:35:13;;;;;;;7.20;5.70;;;3.50;99.90;;;;;;4758789;30;20047;-79
2020/12/13 00:37:40;;;;;;;7.40;5.40;;;3.50;99.90;;;;;;4757922;30;20052;-79
2020/12/13 00:40:12;;;;;;;7.65;5.53;;;3.50;99.90;;;;;;4758036;30;20087;-79
2020/12/13 00:42:38;;;;;;;7.95;5.55;;;3.60;99.90;;;;;;4757179;30;20056;-79
2020/12/13 00:45:05;;;;;;;7.85;5.72;;;3.60;99.90;;;;;;4757618;30;20079;-79
2020/12/13 00:47:31;;;;;;;7.70;5.65;;;3.50;99.90;;;;;;4757808;30;20106;-79
2020/12/13 00:49:59;;;;;;;7.68;5.57;;;3.60;99.90;;;;;;4757112;30;20427;-79
2020/12/13 00:52:26;;;;;;;9.30;6.22;;;3.60;99.90;;;;;;4757528;30;20114;-80
2020/12/13 00:54:53;;;;;;;8.40;5.85;;;3.60;99.90;;;;;;4757626;30;20048;-79
2020/12/13 00:57:20;;;;;;;9.65;6.28;;;3.60;99.90;;;;;;4756957;30;20059;-79
2020/12/13 00:59:47;;;;;;;8.77;6.30;;;3.50;99.90;;;;;;4756930;30;20059;-79
2020/12/13 01:02:13;;;;;;;9.05;6.93;;;3.60;99.90;;;;;;4757512;30;20070;-79
2020/12/13 01:04:46;;;;;;;9.73;6.65;;;3.60;99.90;;;;;;4757417;30;20052;-79
2020/12/13 01:07:13;;;;;;;9.75;7.05;;;3.60;99.90;;;;;;4756530;30;20052;-79
2020/12/13 01:09:39;;;;;;;8.85;6.68;;;3.60;99.90;;;;;;4756487;30;20067;-79
2020/12/13 01:12:06;;;;;;;9.63;6.78;;;3.50;99.90;;;;;;4755943;30;20170;-79
2020/12/13 01:14:33;;;;;;;8.73;6.50;;;3.50;99.90;;;;;;4749241;30;20345;-80
2020/12/13 01:16:59;;;;;;;8.80;6.47;;;3.50;99.90;;;;;;4756870;30;20056;-79
2020/12/13 01:19:26;;;;;;;9.27;6.55;;;3.50;99.90;;;;;;4756955;30;20055;-79
2020/12/13 01:21:54;;;;;;;10.15;7.40;;;3.50;99.90;;;;;;4757522;30;20090;-79
2020/12/13 01:24:21;;;;;;;9.07;6.30;;;3.50;99.90;;;;;;4757997;30;20055;-79
2020/12/13 01:26:48;;;;;;;10.48;6.72;;;3.60;99.90;;;;;;4757960;30;20204;-79
2020/12/13 01:29:15;;;;;;;8.90;6.18;;;3.60;99.90;;;;;;4756913;30;20117;-79
2020/12/13 01:31:41;;;;;;;9.85;6.82;;;3.60;99.90;;;;;;4756780;30;20048;-79
2020/12/13 01:34:08;;;;;;;8.75;6.38;;;3.60;99.90;;;;;;4757188;30;20113;-79
2020/12/13 01:36:35;;;;;;;8.35;6.65;;;3.60;99.90;;;;;;4756800;30;20105;-79
2020/12/13 01:39:04;;;;;;;9.60;6.68;;;3.60;99.90;;;;;;4742145;30;20142;-79
2020/12/13 01:41:31;;;;;;;9.77;6.85;;;3.60;99.90;;;;;;4757444;30;20071;-79
2020/12/13 01:44:00;;;;;;;8.45;6.28;;;3.60;99.90;;;;;;4737993;30;20147;-79
2020/12/13 01:46:28;;;;;;;8.65;6.05;;;3.70;99.90;;;;;;4756979;30;20087;-80
2020/12/13 01:49:03;;;;;;;9.55;6.43;;;3.60;99.90;;;;;;4756277;30;20150;-79
2020/12/13 01:54:12;;;;;;;7.22;5.18;;;3.70;99.90;;;;;;4756061;30;20134;-79
2020/12/13 01:56:44;;;;;;;7.60;5.68;;;3.70;99.90;;;;;;4757401;30;20044;-79
2020/12/13 01:59:15;;;;;;;7.13;5.45;;;3.70;99.90;;;;;;4754985;30;20058;-80
2020/12/13 02:01:44;;;;;;;8.10;6.13;;;3.70;99.90;;;;;;4756071;30;20051;-79
2020/12/13 02:04:15;;;;;;;9.00;5.97;;;3.70;99.90;;;;;;4755533;30;20062;-79
2020/12/13 02:06:43;;;;;;;7.10;5.68;;;3.70;99.90;;;;;;4755961;30;20463;-79
2020/12/13 02:09:10;;;;;;;9.48;6.55;;;3.70;99.90;;;;;;4755022;30;20106;-79
2020/12/13 02:11:36;;;;;;;8.20;5.55;;;3.70;99.90;;;;;;4755863;30;20539;-79
2020/12/13 02:14:04;;;;;;;9.00;6.20;;;3.70;99.90;;;;;;4755790;30;20054;-79
2020/12/13 02:16:31;;;;;;;8.85;6.22;;;3.70;99.90;;;;;;4755098;30;20055;-79
2020/12/13 02:19:00;;;;;;;9.88;6.18;;;3.70;99.90;;;;;;4754273;30;20048;-79
2020/12/13 02:21:27;;;;;;;8.45;6.18;;;3.70;99.90;;;;;;4754755;30;20055;-79
2020/12/13 02:23:59;;;;;;;10.18;6.47;;;3.80;99.90;;;;;;4756086;30;20128;-79
2020/12/13 02:26:30;;;;;;;8.40;6.05;;;3.80;99.90;;;;;;4754537;30;20056;-79
2020/12/13 02:28:57;;;;;;;9.50;6.30;;;3.80;99.90;;;;;;4753101;30;20079;-79
2020/12/13 02:31:29;;;;;;;9.25;6.55;;;3.80;99.90;;;;;;4754663;30;20046;-79
2020/12/13 02:33:55;;;;;;;9.45;6.55;;;3.80;99.90;;;;;;4740224;30;20118;-79
2020/12/13 02:36:22;;;;;;;10.48;6.57;;;3.80;99.90;;;;;;4754895;30;20150;-79
2020/12/13 02:38:49;;;;;;;9.75;7.00;;;3.90;99.90;;;;;;4754827;30;20055;-79
2020/12/13 02:41:15;;;;;;;9.57;6.72;;;3.90;99.90;;;;;;4755205;30;20088;-79
2020/12/13 02:43:42;;;;;;;9.18;6.70;;;3.90;99.90;;;;;;4755005;30;20060;-79
2020/12/13 02:46:08;;;;;;;10.35;7.28;;;3.90;99.90;;;;;;4754525;30;20056;-79
2020/12/13 02:48:35;;;;;;;11.00;7.57;;;3.90;99.90;;;;;;4753565;30;20051;-79
2020/12/13 02:51:02;;;;;;;11.27;7.47;;;3.90;99.90;;;;;;4754293;30;20079;-79
2020/12/13 02:53:29;;;;;;;13.00;7.78;;;3.90;99.90;;;;;;4754919;30;20058;-79
2020/12/13 02:55:56;;;;;;;10.75;6.78;;;3.90;99.90;;;;;;4754010;30;20056;-79
2020/12/13 02:58:23;;;;;;;10.75;7.25;;;4.00;99.90;;;;;;4752955;30;20135;-79
2020/12/13 03:00:50;;;;;;;12.77;7.55;;;4.00;99.90;;;;;;4753736;30;20056;-79
2020/12/13 03:03:17;;;;;;;11.80;7.57;;;4.00;99.90;;;;;;4753398;30;20753;-79
2020/12/13 03:05:43;;;;;;;9.82;6.68;;;4.00;99.90;;;;;;4738923;30;20051;-79
2020/12/13 03:08:10;;;;;;;11.43;7.70;;;4.00;99.90;;;;;;4753307;30;20147;-79
2020/12/13 03:10:42;;;;;;;11.05;6.72;;;4.00;99.90;;;;;;4739830;30;20075;-79
2020/12/13 03:13:14;;;;;;;14.20;7.47;;;4.00;99.90;;;;;;4753940;30;20056;-79
2020/12/13 03:15:41;;;;;;;13.10;7.93;;;4.00;99.90;;;;;;4753768;30;20125;-79
2020/12/13 03:18:08;;;;;;;13.60;8.63;;;4.00;99.90;;;;;;4752851;30;20056;-79
2020/12/13 03:20:35;;;;;;;12.70;7.93;;;4.10;99.90;;;;;;4753336;30;20058;-79
2020/12/13 03:23:03;;;;;;;13.77;8.73;;;4.10;99.90;;;;;;4753015;30;20080;-79
2020/12/13 03:25:34;;;;;;;14.00;8.30;;;4.10;99.90;;;;;;4752776;30;20113;-79
2020/12/13 03:28:01;;;;;;;13.13;8.05;;;4.10;99.90;;;;;;4752693;30;20098;-79
2020/12/13 03:30:28;;;;;;;12.82;7.60;;;4.10;99.90;;;;;;4753200;30;20083;-79
2020/12/13 03:33:00;;;;;;;11.45;7.22;;;4.10;99.90;;;;;;4752781;30;20048;-79
2020/12/13 03:35:27;;;;;;;12.73;7.43;;;4.10;99.90;;;;;;4753305;30;20056;-79
2020/12/13 03:37:54;;;;;;;13.73;8.23;;;4.10;99.90;;;;;;4751877;30;20075;-79
2020/12/13 03:40:33;;;;;;;12.32;7.75;;;4.10;99.90;;;;;;4754906;30;20051;-79
2020/12/13 03:43:00;;;;;;;13.82;8.07;;;4.10;99.90;;;;;;4755397;30;20054;-79
2020/12/13 03:45:32;;;;;;;14.82;8.68;;;4.10;99.90;;;;;;4756218;30;20065;-79
2020/12/13 03:47:59;;;;;;;15.50;9.25;;;4.10;99.90;;;;;;4755139;30;20097;-79
2020/12/13 03:50:25;;;;;;;14.98;8.98;;;4.10;99.90;;;;;;4755608;30;20055;-79
2020/12/13 03:52:53;;;;;;;13.43;8.25;;;4.10;99.90;;;;;;4756019;30;20090;-79
2020/12/13 03:55:19;;;;;;;16.33;9.70;;;4.10;99.90;;;;;;4755339;30;20136;-79
2020/12/13 03:57:53;;;;;;;16.13;10.02;;;4.20;99.90;;;;;;4754846;30;20052;-79
2020/12/13 04:00:19;;;;;;;14.63;9.02;;;4.10;99.90;;;;;;4755700;30;20054;-79
2020/12/13 04:02:52;;;;;;;13.43;8.80;;;4.10;99.90;;;;;;4754958;30;20052;-79
2020/12/13 04:05:19;;;;;;;22.10;10.73;;;4.20;99.90;;;;;;4755533;30;20405;-79
2020/12/13 04:07:46;;;;;;;17.40;10.38;;;4.20;99.90;;;;;;4755490;30;20058;-79
2020/12/13 04:10:13;;;;;;;15.52;8.85;;;4.20;99.90;;;;;;4762441;30;20054;-79
2020/12/13 04:12:40;;;;;;;18.15;10.18;;;4.20;99.90;;;;;;4755761;30;20058;-79
2020/12/13 04:15:07;;;;;;;14.50;9.02;;;4.20;99.90;;;;;;4755064;30;20121;-79
2020/12/13 04:17:35;;;;;;;19.52;10.95;;;4.20;99.90;;;;;;4755388;30;20086;-79
2020/12/13 04:20:03;;;;;;;18.90;10.32;;;4.20;99.90;;;;;;4754921;30;20104;-79
2020/12/13 04:22:30;;;;;;;19.20;11.35;;;4.20;99.90;;;;;;4740671;30;20080;-79
2020/12/13 04:24:58;;;;;;;21.20;10.93;;;4.20;99.90;;;;;;4755195;30;20058;-79
2020/12/13 04:27:25;;;;;;;17.92;11.00;;;4.20;99.90;;;;;;4754763;30;20043;-79
2020/12/13 04:29:52;;;;;;;22.00;11.32;;;4.30;99.90;;;;;;4754435;30;20094;-79
2020/12/13 04:32:19;;;;;;;18.98;10.82;;;4.20;99.90;;;;;;4754917;30;20589;-79
2020/12/13 04:34:51;;;;;;;18.80;11.25;;;4.20;99.90;;;;;;4754670;30;20048;-79
2020/12/13 04:37:23;;;;;;;20.42;10.30;;;4.20;99.90;;;;;;4740750;30;20114;-79
2020/12/13 04:39:53;;;;;;;18.02;10.18;;;4.20;99.90;;;;;;4753988;30;20109;-79
2020/12/13 04:42:25;;;;;;;20.25;11.13;;;4.20;99.90;;;;;;4755320;30;20048;-79
2020/12/13 04:44:53;;;;;;;19.13;9.65;;;4.20;99.90;;;;;;4754382;30;20060;-79
2020/12/13 04:47:20;;;;;;;21.52;12.27;;;4.20;99.90;;;;;;4754788;30;20060;-79
2020/12/13 04:49:55;;;;;;;19.58;10.48;;;4.20;99.90;;;;;;4753977;30;20048;-79
2020/12/13 04:52:22;;;;;;;22.63;11.65;;;4.20;99.90;;;;;;4753384;30;20055;-79
2020/12/13 04:54:50;;;;;;;22.58;10.60;;;4.20;99.90;;;;;;4754337;30;20240;-80
2020/12/13 04:57:19;;;;;;;20.45;11.40;;;4.30;99.90;;;;;;4754592;30;20122;-79
2020/12/13 04:59:47;;;;;;;20.75;10.55;;;4.20;99.90;;;;;;4739354;30;20079;-79
2020/12/13 05:02:16;;;;;;;18.30;9.75;;;4.20;99.90;;;;;;4739978;30;20267;-79
2020/12/13 05:04:43;;;;;;;22.73;12.05;;;4.30;99.90;;;;;;4754047;30;20052;-79
2020/12/13 05:07:19;;;;;;;18.20;11.07;;;4.30;99.90;;;;;;4739950;30;20138;-79
2020/12/13 05:09:51;;;;;;;20.40;11.70;;;4.20;99.90;;;;;;4753617;30;20509;-79
2020/12/13 05:12:24;;;;;;;23.63;11.35;;;4.20;99.90;;;;;;4754178;30;20162;-79
2020/12/13 05:14:51;;;;;;;21.60;10.32;;;4.30;99.90;;;;;;4754134;30;20059;-79
2020/12/13 05:17:18;;;;;;;22.10;10.13;;;4.20;99.90;;;;;;4754011;30;20056;-79
2020/12/13 05:19:49;;;;;;;20.15;11.15;;;4.20;99.90;;;;;;4752913;30;20433;-79
2020/12/13 05:22:23;;;;;;;19.42;10.93;;;4.20;99.90;;;;;;4753763;30;20109;-79
2020/12/13 05:24:50;;;;;;;21.00;11.13;;;4.20;99.90;;;;;;4739157;30;20097;-79
2020/12/13 05:27:23;;;;;;;19.52;11.18;;;4.20;99.90;;;;;;4740126;30;20090;-79
2020/12/13 05:29:53;;;;;;;22.35;11.27;;;4.20;99.90;;;;;;4753276;30;20421;-79
2020/12/13 05:32:23;;;;;;;21.48;11.20;;;4.30;99.90;;;;;;4753388;30;20078;-79
2020/12/13 05:34:51;;;;;;;19.95;11.45;;;4.30;99.90;;;;;;4768453;30;20071;-79
2020/12/13 05:37:18;;;;;;;19.15;10.27;;;4.20;99.90;;;;;;4753458;30;20086;-79
2020/12/13 05:39:49;;;;;;;20.08;11.38;;;4.30;99.90;;;;;;4753339;30;20130;-79
2020/12/13 05:42:40;;;;;;;19.30;11.63;;;4.30;99.90;;;;;;4753704;30;20077;-79
2020/12/13 05:51:01;;;;;;;23.00;12.68;;;4.30;99.90;;;;;;4752914;30;20604;-79
2020/12/13 05:53:08;;;;;;;19.90;11.40;;;4.30;99.90;;;;;;4748092;30;20147;-80
2020/12/13 05:55:35;;;;;;;18.75;10.82;;;4.30;99.90;;;;;;4753512;30;20044;-79
2020/12/13 05:58:07;;;;;;;19.15;11.10;;;4.30;99.90;;;;;;4752445;30;20066;-79
2020/12/13 06:00:40;;;;;;;22.33;11.32;;;4.30;99.90;;;;;;4757259;30;20152;-79
2020/12/13 06:07:28;;;;;;;18.20;10.57;;;4.30;99.90;;;;;;4778985;30;20098;-80
2020/12/13 06:10:08;;;;;;;18.35;10.10;;;4.30;99.90;;;;;;4777125;30;20608;-80
2020/12/13 06:12:45;;;;;;;19.98;10.65;;;4.30;99.90;;;;;;4755861;30;20075;-80
2020/12/13 06:15:15;;;;;;;19.73;11.27;;;4.30;99.90;;;;;;4754738;30;20075;-80
2020/12/13 06:17:50;;;;;;;20.40;11.30;;;4.30;99.90;;;;;;4755694;30;20040;-80
2020/12/13 06:20:19;;;;;;;19.35;11.68;;;4.30;99.90;;;;;;4755162;30;20040;-80
2020/12/13 06:22:49;;;;;;;18.17;9.70;;;4.30;99.90;;;;;;4755378;30;20059;-81
2020/12/13 06:25:17;;;;;;;19.17;11.15;;;4.30;99.90;;;;;;4763887;30;20124;-80
2020/12/13 06:27:49;;;;;;;18.10;9.90;;;4.30;99.90;;;;;;4756435;30;20059;-80
2020/12/13 06:30:19;;;;;;;15.77;9.32;;;4.30;99.90;;;;;;4756595;30;20063;-80
2020/12/13 06:32:50;;;;;;;18.38;10.73;;;4.30;99.90;;;;;;4770934;30;20047;-80
2020/12/13 06:35:22;;;;;;;17.25;9.23;;;4.30;99.90;;;;;;4755806;30;20104;-80
2020/12/13 06:37:49;;;;;;;15.93;9.73;;;4.30;99.90;;;;;;4753706;30;20058;-79
2020/12/13 06:40:20;;;;;;;19.63;10.30;;;4.30;99.90;;;;;;4752342;30;20051;-80
2020/12/13 06:42:49;;;;;;;16.88;10.13;;;4.40;99.90;;;;;;4735024;30;20210;-80
2020/12/13 06:45:17;;;;;;;17.00;9.07;;;4.40;99.90;;;;;;4750299;30;20059;-80
2020/12/13 06:47:45;;;;;;;15.13;8.90;;;4.40;99.90;;;;;;4765200;30;20052;-80
2020/12/13 06:50:23;;;;;;;17.83;10.07;;;4.40;99.90;;;;;;4752172;30;20079;-79
2020/12/13 06:52:52;;;;;;;18.23;10.48;;;4.30;99.90;;;;;;4729365;30;20067;-80
2020/12/13 06:55:31;;;;;;;14.98;9.23;;;4.40;99.90;;;;;;4720133;30;20468;-79
2020/12/13 06:57:59;;;;;;;16.52;9.63;;;4.40;99.90;;;;;;4758877;30;20060;-79
2020/12/13 07:00:26;;;;;;;17.52;9.10;;;4.40;99.90;;;;;;4743408;29;20039;-79
2020/12/13 07:03:00;;;;;;;16.60;9.95;;;4.40;99.90;;;;;;4752914;30;20099;-79
2020/12/13 07:05:54;;;;;;;15.25;9.13;;;4.50;99.90;;;;;;4730856;30;20056;-78
2020/12/13 07:13:19;;;;;;;16.85;10.27;;;4.50;99.90;;;;;;4773066;30;20095;-80
2020/12/13 07:17:20;;;;;;;16.25;10.05;;;4.40;99.90;;;;;;4756280;30;20039;-81
2020/12/13 07:20:30;;;;;;;18.38;10.77;;;4.50;99.90;;;;;;4721752;29;20031;-80
2020/12/13 07:22:58;;;;;;;15.43;10.20;;;4.50;99.90;;;;;;4775472;30;20109;-79
2020/12/13 07:25:24;;;;;;;18.48;10.45;;;4.50;99.90;;;;;;4772404;29;20435;-80
2020/12/13 07:27:52;;;;;;;16.35;11.05;;;4.50;99.90;;;;;;4763621;29;20028;-79
2020/12/13 07:30:19;;;;;;;18.50;11.02;;;4.50;99.90;;;;;;4744721;29;20036;-80
2020/12/13 07:32:46;;;;;;;17.48;10.73;;;4.60;99.90;;;;;;4758511;29;20044;-80
2020/12/13 07:38:22;;;;;;;16.25;10.23;;;4.50;99.90;;;;;;4768349;30;20118;-79
2020/12/13 07:40:57;;;;;;;15.65;9.93;;;4.50;99.90;;;;;;4757831;29;20144;-81
2020/12/13 07:43:28;;;;;;;15.18;10.27;;;4.50;99.90;;;;;;4771976;29;20064;-80
2020/12/13 07:45:56;;;;;;;17.20;10.55;;;4.50;99.90;;;;;;4761207;29;20035;-80
2020/12/13 07:52:52;;;;;;;14.90;9.85;;;4.50;99.90;;;;;;4735953;30;20126;-79
2020/12/13 07:55:21;;;;;;;16.42;9.05;;;4.50;99.90;;;;;;4743121;30;20031;-79
2020/12/13 07:57:51;;;;;;;15.65;9.85;;;4.50;99.90;;;;;;4771896;30;20119;-79
2020/12/13 08:00:21;;;;;;;14.88;9.43;;;4.50;99.90;;;;;;4771979;30;20052;-79
2020/12/13 08:03:00;;;;;;;16.77;10.52;;;4.60;99.90;;;;;;4753653;30;20056;-79
2020/12/13 08:06:31;;;;;;;12.45;8.25;;;4.50;99.90;;;;;;4779116;30;20048;-82
2020/12/13 08:09:13;;;;;;;11.85;8.48;;;4.50;99.90;;;;;;4765423;30;20051;-82
2020/12/13 08:11:44;;;;;;;11.70;8.52;;;4.60;99.90;;;;;;4779570;30;20074;-81
2020/12/13 08:14:11;;;;;;;11.57;8.30;;;4.60;99.90;;;;;;4753405;30;20386;-81
2020/12/13 08:16:39;;;;;;;12.98;8.35;;;4.50;99.90;;;;;;4736192;30;20155;-79
2020/12/13 08:19:19;;;;;;;11.88;8.05;;;4.50;99.90;;;;;;4732727;30;20076;-80
2020/12/13 08:22:02;;;;;;;12.60;8.30;;;4.60;99.90;;;;;;4733265;30;20056;-81
2020/12/13 08:24:31;;;;;;;12.00;8.43;;;4.60;99.90;;;;;;4733340;30;20048;-81
2020/12/13 08:27:03;;;;;;;12.20;7.60;;;4.60;99.90;;;;;;4735757;30;20108;-81
2020/12/13 08:29:33;;;;;;;10.00;7.40;;;4.60;99.90;;;;;;4735451;30;20056;-80
2020/12/13 08:32:15;;;;;;;10.65;7.35;;;4.60;99.90;;;;;;4735854;30;20048;-81
2020/12/13 08:34:43;;;;;;;11.13;8.15;;;4.60;99.90;;;;;;4734761;30;20048;-80
2020/12/13 08:37:25;;;;;;;12.27;7.50;;;4.60;99.90;;;;;;4735352;30;20413;-80
2020/12/13 08:39:57;;;;;;;11.35;8.73;;;4.60;99.90;;;;;;4734901;30;20513;-80
2020/12/13 08:42:25;;;;;;;11.35;7.88;;;4.60;99.90;;;;;;4735366;30;20105;-80
2020/12/13 08:44:52;;;;;;;10.73;8.38;;;4.60;99.90;;;;;;4736166;30;20452;-80
2020/12/13 08:47:32;;;;;;;10.15;7.60;;;4.70;99.90;;;;;;4721176;30;20451;-80
2020/12/13 08:50:07;;;;;;;11.75;7.95;;;4.70;99.90;;;;;;4735198;30;20052;-80
2020/12/13 08:52:38;;;;;;;11.75;8.27;;;4.70;99.90;;;;;;4744408;30;20037;-81
2020/12/13 10:43:16;;;;;;;6.88;5.10;;;4.90;99.90;;;;;;5639166;24;20059;-75
2020/12/13 12:08:02;;;;;;;20.33;11.13;;;5.20;99.90;;;;;;5357123;24;20067;-77
2020/12/13 12:10:32;;;;;;;21.95;11.65;;;5.20;99.90;;;;;;4751615;30;20059;-81
2020/12/13 12:12:59;;;;;;;12.32;7.82;;;5.20;99.90;;;;;;4758409;30;20047;-80
2020/12/13 12:22:47;;;;;;;8.75;5.05;;;5.20;99.90;;;;;;5448775;24;20071;-79
2020/12/13 12:37:17;;;;;;;6.20;4.13;;;5.20;99.90;;;;;;5711296;24;20027;-80
2020/12/13 12:39:44;;;;;;;5.35;4.03;;;5.20;99.90;;;;;;4759814;30;20055;-79
2020/12/13 12:42:11;;;;;;;7.28;4.63;;;5.20;99.90;;;;;;4747228;30;20048;-79
2020/12/13 14:05:09;;;;;;;5.82;4.90;;;5.50;99.90;;;;;;4738237;30;20052;-78
2020/12/13 15:52:44;;;;;;;7.55;5.32;;;4.80;99.90;;;;;;4594521;24;20055;-79
2020/12/13 15:55:13;;;;;;;8.25;5.93;;;4.70;99.90;;;;;;4843200;24;20031;-81
2020/12/13 16:02:25;;;;;;;6.60;4.65;;;4.70;99.90;;;;;;4782045;30;20066;-79
2020/12/13 17:41:19;;;;;;;8.57;6.32;;;3.10;99.90;;;;;;5584628;24;20069;-79
2020/12/13 17:48:11;;;;;;;16.50;9.02;;;3.00;99.90;;;;;;4775027;30;20440;-80
2020/12/13 17:56:19;;;;;;;7.15;5.20;;;2.90;99.90;;;;;;4736650;30;20054;-79
2020/12/13 17:58:54;;;;;;;6.53;5.13;;;2.90;99.90;;;;;;4733405;30;20299;-79
2020/12/13 18:01:23;;;;;;;6.90;5.47;;;2.80;99.90;;;;;;4736221;30;20048;-79
2020/12/13 18:03:52;;;;;;;8.75;6.18;;;2.80;99.90;;;;;;4736738;30;20048;-80
2020/12/13 18:06:21;;;;;;;9.10;6.63;;;2.90;99.90;;;;;;4723921;30;20059;-79
2020/12/13 18:08:50;;;;;;;10.00;7.43;;;2.90;99.90;;;;;;4720131;30;20076;-79
2020/12/13 18:11:19;;;;;;;11.32;7.63;;;2.90;99.90;;;;;;4720905;30;20057;-80
2020/12/13 18:13:49;;;;;;;11.38;7.88;;;2.90;99.90;;;;;;4719910;30;20667;-79
2020/12/13 18:16:18;;;;;;;11.23;8.05;;;2.90;99.90;;;;;;4719838;30;20064;-79
2020/12/13 18:18:47;;;;;;;10.90;7.47;;;2.90;99.90;;;;;;4719650;30;20048;-80
2020/12/13 18:21:23;;;;;;;12.18;8.00;;;3.00;99.90;;;;;;4730110;30;20140;-79
2020/12/13 18:23:51;;;;;;;12.55;8.10;;;3.00;99.90;;;;;;4734375;30;20417;-79
2020/12/13 18:26:24;;;;;;;12.48;9.25;;;3.00;99.90;;;;;;4716026;30;20135;-79
2020/12/13 18:28:56;;;;;;;11.25;7.80;;;3.00;99.90;;;;;;4730536;30;20078;-79
2020/12/13 18:31:24;;;;;;;12.25;7.43;;;3.00;99.90;;;;;;4723593;30;20053;-79
2020/12/13 18:33:51;;;;;;;12.35;8.40;;;3.10;99.90;;;;;;4715312;30;20087;-79
2020/12/13 18:36:24;;;;;;;11.45;7.78;;;3.10;99.90;;;;;;4716486;30;20513;-79
2020/12/13 18:38:51;;;;;;;11.90;8.05;;;3.20;99.90;;;;;;4716288;30;20533;-80
2020/12/13 18:41:20;;;;;;;13.60;8.20;;;3.20;99.90;;;;;;4717013;30;20461;-79
2020/12/13 18:43:48;;;;;;;13.65;9.02;;;3.20;99.90;;;;;;4719950;30;20080;-79
2020/12/13 18:46:19;;;;;;;12.98;8.23;;;3.20;99.90;;;;;;4718790;30;20044;-79
2020/12/13 18:48:46;;;;;;;15.68;9.68;;;3.20;99.90;;;;;;4716403;30;20493;-79
2020/12/13 18:51:16;;;;;;;14.02;9.35;;;3.20;99.90;;;;;;4716783;30;20060;-78
2020/12/13 18:53:47;;;;;;;13.52;9.23;;;3.20;99.90;;;;;;4717448;30;20048;-80
2020/12/13 18:56:13;;;;;;;15.13;9.85;;;3.20;99.90;;;;;;4716727;30;20111;-79
2020/12/13 18:58:40;;;;;;;15.27;10.05;;;3.30;99.90;;;;;;4716626;30;20152;-79
2020/12/13 19:01:06;;;;;;;15.00;10.23;;;3.30;99.90;;;;;;4716163;30;20060;-79
2020/12/13 19:06:04;;;;;;;14.23;9.88;;;3.30;99.90;;;;;;4718769;30;20147;-80
2020/12/13 19:08:36;;;;;;;19.02;11.80;;;3.30;99.90;;;;;;4717926;30;20496;-79
2020/12/13 19:11:04;;;;;;;16.88;10.88;;;3.30;99.90;;;;;;4719257;30;20132;-80
2020/12/13 19:13:32;;;;;;;14.82;9.98;;;3.30;99.90;;;;;;4718818;30;20048;-79
2020/12/13 19:15:58;;;;;;;18.13;11.60;;;3.40;99.90;;;;;;4703814;30;20060;-80
2020/12/13 19:18:29;;;;;;;19.15;13.38;;;3.40;99.90;;;;;;4701683;30;20083;-80
2020/12/13 19:20:57;;;;;;;22.55;13.45;;;3.40;99.90;;;;;;4716572;30;20466;-79
2020/12/13 19:23:29;;;;;;;19.38;13.00;;;3.40;99.90;;;;;;4702403;30;20064;-80
2020/12/13 19:26:00;;;;;;;20.27;12.63;;;3.30;99.90;;;;;;4716076;30;20266;-79
2020/12/13 19:28:32;;;;;;;18.60;12.40;;;3.30;99.90;;;;;;4715912;30;20053;-79
2020/12/13 19:31:04;;;;;;;15.60;11.43;;;3.40;99.90;;;;;;4702447;30;20307;-79
2020/12/13 19:33:36;;;;;;;12.75;8.60;;;3.30;99.90;;;;;;4716109;30;20407;-79
2020/12/13 19:36:02;;;;;;;12.60;8.93;;;3.30;99.90;;;;;;4701630;30;20057;-79
2020/12/13 19:38:34;;;;;;;13.25;9.40;;;3.30;99.90;;;;;;4702037;30;20053;-79
2020/12/13 19:41:00;;;;;;;19.55;14.00;;;3.30;99.90;;;;;;4701594;30;20056;-80
2020/12/13 19:43:26;;;;;;;17.10;13.18;;;3.30;99.90;;;;;;4716407;30;20251;-80
2020/12/13 19:45:53;;;;;;;17.42;12.43;;;3.30;99.90;;;;;;4716346;30;20131;-80
2020/12/13 19:48:19;;;;;;;12.93;9.82;;;3.30;99.90;;;;;;4701051;30;20530;-79
2020/12/13 19:50:46;;;;;;;14.73;9.23;;;3.30;99.90;;;;;;4715432;30;20135;-80
2020/12/13 19:53:19;;;;;;;12.52;8.98;;;3.20;99.90;;;;;;4715676;30;20056;-80
2020/12/13 19:55:52;;;;;;;13.40;8.45;;;3.20;99.90;;;;;;4716680;30;20131;-79
2020/12/13 19:58:24;;;;;;;12.65;8.98;;;3.20;99.90;;;;;;4715456;30;20390;-80
2020/12/13 20:00:55;;;;;;;13.48;9.32;;;3.20;99.90;;;;;;4702334;30;20052;-79
2020/12/13 20:03:26;;;;;;;13.75;10.05;;;3.20;99.90;;;;;;4716019;30;20056;-79
2020/12/13 20:05:53;;;;;;;12.30;8.85;;;3.20;99.90;;;;;;4716278;30;20080;-79
2020/12/13 20:08:25;;;;;;;11.25;8.27;;;3.10;99.90;;;;;;4701792;30;20582;-79
2020/12/13 20:10:51;;;;;;;13.27;8.43;;;3.10;99.90;;;;;;4701346;30;20084;-80
2020/12/13 20:13:28;;;;;;;14.05;9.85;;;3.10;99.90;;;;;;4715315;30;20125;-79
2020/12/13 20:16:22;;;;;;;12.10;7.72;;;3.10;99.90;;;;;;4731126;30;20615;-79
2020/12/13 20:19:54;;;;;;;12.73;8.68;;;3.10;99.90;;;;;;4719210;30;20047;-79
2020/12/13 20:42:37;;;;;;;11.80;8.15;;;3.20;99.90;;;;;;4680791;30;20054;-78
2020/12/13 21:19:28;;;;;;;13.82;9.52;;;3.20;99.90;;;;;;4733279;30;20134;-78
2020/12/13 21:22:02;;;;;;;15.70;10.68;;;3.20;99.90;;;;;;4721023;30;20055;-79
2020/12/13 21:33:05;;;;;;;17.13;10.57;;;3.20;99.90;;;;;;4738555;30;20049;-79
2020/12/13 21:41:26;;;;;;;17.10;11.18;;;3.20;99.90;;;;;;4740663;30;20091;-79
2020/12/13 21:46:25;;;;;;;20.35;12.73;;;3.20;99.90;;;;;;4738433;30;20052;-79
2020/12/13 21:51:27;;;;;;;19.42;11.75;;;3.20;99.90;;;;;;4738602;30;20040;-79
2020/12/13 21:53:57;;;;;;;15.93;11.00;;;3.20;99.90;;;;;;4738129;30;20054;-79
2020/12/13 21:56:45;;;;;;;15.27;10.20;;;3.20;99.90;;;;;;4738323;30;20531;-79
2020/12/13 22:26:38;;;;;;;15.48;9.32;;;3.00;99.90;;;;;;4737879;30;20060;-79
2020/12/13 22:29:08;;;;;;;14.45;9.07;;;3.00;99.90;;;;;;4737722;30;20564;-79
2020/12/13 22:31:34;;;;;;;16.88;10.52;;;3.00;99.90;;;;;;4722842;30;20406;-79
2020/12/13 22:34:09;;;;;;;14.07;9.98;;;3.00;99.90;;;;;;4738610;30;20140;-79
2020/12/13 22:36:41;;;;;;;17.02;11.50;;;3.00;99.90;;;;;;4723979;30;20064;-79
2020/12/13 22:39:07;;;;;;;17.58;11.63;;;3.00;99.90;;;;;;4737581;30;20095;-79
2020/12/13 22:41:34;;;;;;;16.98;10.52;;;3.00;99.90;;;;;;4723043;30;20048;-79
2020/12/13 22:44:06;;;;;;;16.52;10.70;;;3.00;99.90;;;;;;4723628;30;20080;-79
2020/12/13 22:46:37;;;;;;;17.13;11.68;;;3.00;99.90;;;;;;4723879;30;20151;-79
2020/12/13 22:49:09;;;;;;;18.70;11.40;;;3.00;99.90;;;;;;4738181;30;20040;-79
2020/12/13 22:51:46;;;;;;;18.15;11.35;;;3.00;99.90;;;;;;4737269;30;20146;-79
2020/12/13 22:54:12;;;;;;;15.48;10.57;;;3.00;99.90;;;;;;4737541;30;20048;-79
2020/12/13 22:56:43;;;;;;;21.67;14.75;;;3.00;99.90;;;;;;4753066;30;20044;-79
2020/12/13 22:59:15;;;;;;;19.65;11.38;;;3.00;99.90;;;;;;4737305;30;20044;-79
2020/12/13 23:01:46;;;;;;;19.73;13.02;;;3.00;99.90;;;;;;4723399;30;20445;-79
2020/12/13 23:04:12;;;;;;;19.92;12.60;;;3.00;99.90;;;;;;4737237;30;20059;-79
2020/12/13 23:06:44;;;;;;;15.65;10.88;;;3.00;99.90;;;;;;4723298;30;20059;-79
2020/12/13 23:09:11;;;;;;;16.67;11.43;;;3.00;99.90;;;;;;4737338;30;20588;-79
2020/12/13 23:11:38;;;;;;;19.92;11.63;;;3.00;99.90;;;;;;4736992;30;20505;-79
2020/12/13 23:14:09;;;;;;;19.15;11.57;;;3.00;99.90;;;;;;4737173;30;20508;-79
2020/12/13 23:16:35;;;;;;;18.95;13.45;;;3.10;99.90;;;;;;4737027;30;20147;-79
2020/12/13 23:19:06;;;;;;;18.10;11.15;;;3.10;99.90;;;;;;4722993;30;20052;-79
2020/12/13 23:21:44;;;;;;;17.75;11.48;;;3.00;99.90;;;;;;4737025;30;20048;-79
2020/12/13 23:24:11;;;;;;;16.63;10.60;;;3.00;99.90;;;;;;4722332;30;20394;-79
2020/12/13 23:26:42;;;;;;;16.75;10.00;;;3.00;99.90;;;;;;4737696;30;20055;-79
2020/12/13 23:29:08;;;;;;;14.73;9.68;;;3.00;99.90;;;;;;4737140;30;20062;-79
2020/12/13 23:31:35;;;;;;;13.40;9.18;;;3.00;99.90;;;;;;4722179;30;20105;-79
2020/12/13 23:34:03;;;;;;;15.98;10.00;;;3.00;99.90;;;;;;4736883;30;20048;-79
2020/12/13 23:36:38;;;;;;;14.50;9.20;;;3.00;99.90;;;;;;4737117;30;20064;-79